sensor_id;sensor_type;location;lat;lon;timestamp;temperature;humidity
59309;DHT22;48433;53.016;-2.260;2022-12-13T00:01:56;0.80;99.90
59309;DHT22;48433;53.016;-2.260;2022-12-13T00:04:24;0.90;99.90
59309;DHT22;48433;53.016;-2.260;2022-12-13T00:06:52;0.90;99.90
59309;DHT22;48433;53.016;-2.260;2022-12-13T00:09:21;0.90;99.90
59309;DHT22;48433;53.016;-2.260;2022-12-13T00:11:49;0.90;99.90
59309;DHT22;48433;53.016;-2.260;2022-12-13T00:14:17;0.90;99.90
59309;DHT22;48433;53.016;-2.260;2022-12-13T00:16:46;0.90;99.90
59309;DHT22;48433;53.016;-2.260;2022-12-13T00:19:14;0.90;99.90
59309;DHT22;48433;53.016;-2.260;2022-12-13T00:21:43;0.90;99.90
59309;DHT22;48433;53.016;-2.260;2022-12-13T00:24:11;0.90;99.90
59309;DHT22;48433;53.016;-2.260;2022-12-13T00:26:38;0.90;99.90
59309;DHT22;48433;53.016;-2.260;2022-12-13T00:29:07;0.90;99.90
59309;DHT22;48433;53.016;-2.260;2022-12-13T00:31:35;0.90;99.90
59309;DHT22;48433;53.016;-2.260;2022-12-13T00:34:23;0.90;99.90
59309;DHT22;48433;53.016;-2.260;2022-12-13T00:36:53;0.90;99.90
59309;DHT22;48433;53.016;-2.260;2022-12-13T00:39:21;0.90;99.90
59309;DHT22;48433;53.016;-2.260;2022-12-13T00:41:49;1.00;99.90
59309;DHT22;48433;53.016;-2.260;2022-12-13T00:44:16;1.00;99.90
59309;DHT22;48433;53.016;-2.260;2022-12-13T00:46:46;1.00;99.90
59309;DHT22;48433;53.016;-2.260;2022-12-13T00:49:14;1.00;99.90
59309;DHT22;48433;53.016;-2.260;2022-12-13T00:51:42;1.00;99.90
59309;DHT22;48433;53.016;-2.260;2022-12-13T00:54:10;1.00;99.90
59309;DHT22;48433;53.016;-2.260;2022-12-13T00:56:38;0.90;99.90
59309;DHT22;48433;53.016;-2.260;2022-12-13T00:59:05;1.00;99.90
59309;DHT22;48433;53.016;-2.260;2022-12-13T01:01:35;1.00;99.90
59309;DHT22;48433;53.016;-2.260;2022-12-13T01:04:05;1.00;99.90
59309;DHT22;48433;53.016;-2.260;2022-12-13T01:06:36;1.00;99.90
59309;DHT22;48433;53.016;-2.260;2022-12-13T01:09:09;1.00;99.90
59309;DHT22;48433;53.016;-2.260;2022-12-13T01:11:39;1.00;99.90
59309;DHT22;48433;53.016;-2.260;2022-12-13T01:14:06;1.10;99.90
59309;DHT22;48433;53.016;-2.260;2022-12-13T01:16:34;1.00;99.90
59309;DHT22;48433;53.016;-2.260;2022-12-13T01:19:02;1.10;99.90
59309;DHT22;48433;53.016;-2.260;2022-12-13T01:21:29;1.00;99.90
59309;DHT22;48433;53.016;-2.260;2022-12-13T01:24:04;1.00;99.90
59309;DHT22;48433;53.016;-2.260;2022-12-13T01:26:33;1.00;99.90
59309;DHT22;48433;53.016;-2.260;2022-12-13T01:29:01;1.00;99.90
59309;DHT22;48433;53.016;-2.260;2022-12-13T01:31:32;1.10;99.90
59309;DHT22;48433;53.016;-2.260;2022-12-13T01:33:59;1.10;99.90
59309;DHT22;48433;53.016;-2.260;2022-12-13T01:36:27;1.10;99.90
59309;DHT22;48433;53.016;-2.260;2022-12-13T01:38:55;1.10;99.90
59309;DHT22;48433;53.016;-2.260;2022-12-13T01:41:26;1.20;99.90
59309;DHT22;48433;53.016;-2.260;2022-12-13T01:44:00;1.10;99.90
59309;DHT22;48433;53.016;-2.260;2022-12-13T01:46:32;1.10;99.90
59309;DHT22;48433;53.016;-2.260;2022-12-13T01:49:09;1.10;99.90
59309;DHT22;48433;53.016;-2.260;2022-12-13T01:51:54;1.10;99.90
59309;DHT22;48433;53.016;-2.260;2022-12-13T01:54:31;1.10;99.90
59309;DHT22;48433;53.016;-2.260;2022-12-13T01:57:03;1.20;99.90
59309;DHT22;48433;53.016;-2.260;2022-12-13T01:59:33;1.20;99.90
59309;DHT22;48433;53.016;-2.260;2022-12-13T02:02:03;1.20;99.90
59309;DHT22;48433;53.016;-2.260;2022-12-13T02:04:59;1.10;99.90
59309;DHT22;48433;53.016;-2.260;2022-12-13T02:07:28;1.00;99.90
59309;DHT22;48433;53.016;-2.260;2022-12-13T02:09:59;1.20;99.90
59309;DHT22;48433;53.016;-2.260;2022-12-13T02:12:29;1.20;99.90
59309;DHT22;48433;53.016;-2.260;2022-12-13T02:15:04;1.20;99.90
59309;DHT22;48433;53.016;-2.260;2022-12-13T02:39:34;1.20;99.90
59309;DHT22;48433;53.016;-2.260;2022-12-13T02:42:26;1.20;99.90
59309;DHT22;48433;53.016;-2.260;2022-12-13T02:45:02;1.20;99.90
59309;DHT22;48433;53.016;-2.260;2022-12-13T02:47:33;1.20;99.90
59309;DHT22;48433;53.016;-2.260;2022-12-13T02:50:05;1.20;99.90
59309;DHT22;48433;53.016;-2.260;2022-12-13T02:52:33;1.20;99.90
59309;DHT22;48433;53.016;-2.260;2022-12-13T02:55:06;1.20;99.90
59309;DHT22;48433;53.016;-2.260;2022-12-13T02:57:36;1.20;99.90
59309;DHT22;48433;53.016;-2.260;2022-12-13T03:00:16;1.20;99.90
59309;DHT22;48433;53.016;-2.260;2022-12-13T03:15:20;1.20;99.90
59309;DHT22;48433;53.016;-2.260;2022-12-13T03:20:24;1.20;99.90
59309;DHT22;48433;53.016;-2.260;2022-12-13T03:22:53;1.20;99.90
59309;DHT22;48433;53.016;-2.260;2022-12-13T03:25:24;1.20;99.90
59309;DHT22;48433;53.016;-2.260;2022-12-13T03:28:00;1.20;99.90
59309;DHT22;48433;53.016;-2.260;2022-12-13T03:30:31;1.20;99.90
59309;DHT22;48433;53.016;-2.260;2022-12-13T03:32:59;1.20;99.90
59309;DHT22;48433;53.016;-2.260;2022-12-13T03:35:28;1.20;99.90
59309;DHT22;48433;53.016;-2.260;2022-12-13T03:38:14;1.20;99.90
59309;DHT22;48433;53.016;-2.260;2022-12-13T03:41:13;4.10;99.90
59309;DHT22;48433;53.016;-2.260;2022-12-13T03:43:42;1.20;99.90
59309;DHT22;48433;53.016;-2.260;2022-12-13T03:46:09;1.20;99.90
59309;DHT22;48433;53.016;-2.260;2022-12-13T03:48:37;1.20;99.90
59309;DHT22;48433;53.016;-2.260;2022-12-13T03:51:05;1.20;99.90
59309;DHT22;48433;53.016;-2.260;2022-12-13T03:53:33;1.20;99.90
59309;DHT22;48433;53.016;-2.260;2022-12-13T03:56:03;1.20;99.90
59309;DHT22;48433;53.016;-2.260;2022-12-13T03:58:33;1.20;99.90
59309;DHT22;48433;53.016;-2.260;2022-12-13T04:01:05;1.20;99.90
59309;DHT22;48433;53.016;-2.260;2022-12-13T04:03:33;1.20;99.90
59309;DHT22;48433;53.016;-2.260;2022-12-13T04:06:02;1.20;99.90
59309;DHT22;48433;53.016;-2.260;2022-12-13T04:08:30;1.20;99.90
59309;DHT22;48433;53.016;-2.260;2022-12-13T04:10:57;1.20;99.90
59309;DHT22;48433;53.016;-2.260;2022-12-13T04:13:25;1.30;99.90
59309;DHT22;48433;53.016;-2.260;2022-12-13T04:16:00;1.20;99.90
59309;DHT22;48433;53.016;-2.260;2022-12-13T04:18:28;1.20;99.90
59309;DHT22;48433;53.016;-2.260;2022-12-13T04:20:56;1.20;99.90
59309;DHT22;48433;53.016;-2.260;2022-12-13T04:23:24;1.20;99.90
59309;DHT22;48433;53.016;-2.260;2022-12-13T04:25:52;1.20;99.90
59309;DHT22;48433;53.016;-2.260;2022-12-13T04:28:19;1.20;99.90
59309;DHT22;48433;53.016;-2.260;2022-12-13T04:30:50;1.20;99.90
59309;DHT22;48433;53.016;-2.260;2022-12-13T04:33:23;1.20;99.90
59309;DHT22;48433;53.016;-2.260;2022-12-13T04:35:51;1.20;99.90
59309;DHT22;48433;53.016;-2.260;2022-12-13T04:38:19;1.20;99.90
59309;DHT22;48433;53.016;-2.260;2022-12-13T04:40:46;1.20;99.90
59309;DHT22;48433;53.016;-2.260;2022-12-13T04:43:14;1.20;99.90
59309;DHT22;48433;53.016;-2.260;2022-12-13T04:45:42;1.20;99.90
59309;DHT22;48433;53.016;-2.260;2022-12-13T04:48:09;1.20;99.90
59309;DHT22;48433;53.016;-2.260;2022-12-13T04:50:37;1.10;99.90
59309;DHT22;48433;53.016;-2.260;2022-12-13T04:53:05;1.10;99.90
59309;DHT22;48433;53.016;-2.260;2022-12-13T04:55:32;1.10;99.90
59309;DHT22;48433;53.016;-2.260;2022-12-13T04:58:00;1.10;99.90
59309;DHT22;48433;53.016;-2.260;2022-12-13T05:00:27;1.10;99.90
59309;DHT22;48433;53.016;-2.260;2022-12-13T05:02:55;1.10;99.90
59309;DHT22;48433;53.016;-2.260;2022-12-13T05:05:22;1.10;99.90
59309;DHT22;48433;53.016;-2.260;2022-12-13T05:07:50;1.10;99.90
59309;DHT22;48433;53.016;-2.260;2022-12-13T05:10:18;1.10;99.90
59309;DHT22;48433;53.016;-2.260;2022-12-13T05:13:04;1.10;99.90
59309;DHT22;48433;53.016;-2.260;2022-12-13T05:15:33;1.10;99.90
59309;DHT22;48433;53.016;-2.260;2022-12-13T05:18:02;1.10;99.90
59309;DHT22;48433;53.016;-2.260;2022-12-13T05:20:38;1.10;99.90
59309;DHT22;48433;53.016;-2.260;2022-12-13T05:23:06;1.10;99.90
59309;DHT22;48433;53.016;-2.260;2022-12-13T05:25:33;1.10;99.90
59309;DHT22;48433;53.016;-2.260;2022-12-13T05:28:04;1.00;99.90
59309;DHT22;48433;53.016;-2.260;2022-12-13T05:30:53;1.10;99.90
59309;DHT22;48433;53.016;-2.260;2022-12-13T05:33:22;1.00;99.90
59309;DHT22;48433;53.016;-2.260;2022-12-13T05:38:23;1.00;99.90
59309;DHT22;48433;53.016;-2.260;2022-12-13T05:40:51;1.00;99.90
59309;DHT22;48433;53.016;-2.260;2022-12-13T05:43:19;1.00;99.90
59309;DHT22;48433;53.016;-2.260;2022-12-13T05:45:48;1.00;99.90
59309;DHT22;48433;53.016;-2.260;2022-12-13T05:48:16;1.00;99.90
59309;DHT22;48433;53.016;-2.260;2022-12-13T05:50:51;1.00;99.90
59309;DHT22;48433;53.016;-2.260;2022-12-13T05:53:40;1.10;99.90
59309;DHT22;48433;53.016;-2.260;2022-12-13T05:56:09;1.00;99.90
59309;DHT22;48433;53.016;-2.260;2022-12-13T05:58:39;1.00;99.90
59309;DHT22;48433;53.016;-2.260;2022-12-13T06:01:10;1.00;99.90
59309;DHT22;48433;53.016;-2.260;2022-12-13T06:03:38;1.00;99.90
59309;DHT22;48433;53.016;-2.260;2022-12-13T06:06:08;1.00;99.90
59309;DHT22;48433;53.016;-2.260;2022-12-13T06:08:36;1.10;99.90
59309;DHT22;48433;53.016;-2.260;2022-12-13T06:11:05;1.10;99.90
59309;DHT22;48433;53.016;-2.260;2022-12-13T06:13:42;1.10;99.90
59309;DHT22;48433;53.016;-2.260;2022-12-13T06:16:12;1.10;99.90
59309;DHT22;48433;53.016;-2.260;2022-12-13T06:18:51;1.00;99.90
59309;DHT22;48433;53.016;-2.260;2022-12-13T06:21:31;1.10;99.90
59309;DHT22;48433;53.016;-2.260;2022-12-13T06:24:17;1.10;99.90
59309;DHT22;48433;53.016;-2.260;2022-12-13T06:26:45;1.10;99.90
59309;DHT22;48433;53.016;-2.260;2022-12-13T06:29:18;1.00;99.90
59309;DHT22;48433;53.016;-2.260;2022-12-13T06:32:00;1.10;99.90
59309;DHT22;48433;53.016;-2.260;2022-12-13T06:34:32;1.10;99.90
59309;DHT22;48433;53.016;-2.260;2022-12-13T06:37:02;1.00;99.90
59309;DHT22;48433;53.016;-2.260;2022-12-13T06:39:30;1.00;99.90
59309;DHT22;48433;53.016;-2.260;2022-12-13T06:42:01;1.00;99.90
59309;DHT22;48433;53.016;-2.260;2022-12-13T06:44:28;1.10;99.90
59309;DHT22;48433;53.016;-2.260;2022-12-13T06:46:56;1.00;99.90
59309;DHT22;48433;53.016;-2.260;2022-12-13T06:49:40;1.00;99.90
59309;DHT22;48433;53.016;-2.260;2022-12-13T06:52:11;1.00;99.90
59309;DHT22;48433;53.016;-2.260;2022-12-13T06:54:40;1.00;99.90
59309;DHT22;48433;53.016;-2.260;2022-12-13T06:57:10;1.00;99.90
59309;DHT22;48433;53.016;-2.260;2022-12-13T06:59:38;1.00;99.90
59309;DHT22;48433;53.016;-2.260;2022-12-13T07:02:07;1.00;99.90
59309;DHT22;48433;53.016;-2.260;2022-12-13T07:04:52;1.00;99.90
59309;DHT22;48433;53.016;-2.260;2022-12-13T07:07:19;1.00;99.90
59309;DHT22;48433;53.016;-2.260;2022-12-13T07:09:47;1.00;99.90
59309;DHT22;48433;53.016;-2.260;2022-12-13T07:12:15;1.00;99.90
59309;DHT22;48433;53.016;-2.260;2022-12-13T07:14:42;1.00;99.90
59309;DHT22;48433;53.016;-2.260;2022-12-13T07:17:12;1.00;99.90
59309;DHT22;48433;53.016;-2.260;2022-12-13T07:20:05;1.00;99.90
59309;DHT22;48433;53.016;-2.260;2022-12-13T07:22:37;1.00;99.90
59309;DHT22;48433;53.016;-2.260;2022-12-13T07:25:14;1.00;99.90
59309;DHT22;48433;53.016;-2.260;2022-12-13T07:28:01;1.00;99.90
59309;DHT22;48433;53.016;-2.260;2022-12-13T07:30:35;1.00;99.90
59309;DHT22;48433;53.016;-2.260;2022-12-13T07:33:08;1.00;99.90
59309;DHT22;48433;53.016;-2.260;2022-12-13T07:35:36;1.00;99.90
59309;DHT22;48433;53.016;-2.260;2022-12-13T07:38:09;1.00;99.90
59309;DHT22;48433;53.016;-2.260;2022-12-13T07:40:38;1.00;99.90
59309;DHT22;48433;53.016;-2.260;2022-12-13T07:43:08;1.00;99.90
59309;DHT22;48433;53.016;-2.260;2022-12-13T07:45:37;0.90;99.90
59309;DHT22;48433;53.016;-2.260;2022-12-13T07:48:05;1.00;99.90
59309;DHT22;48433;53.016;-2.260;2022-12-13T07:50:33;1.00;99.90
59309;DHT22;48433;53.016;-2.260;2022-12-13T07:53:06;1.00;99.90
59309;DHT22;48433;53.016;-2.260;2022-12-13T07:55:35;1.00;99.90
59309;DHT22;48433;53.016;-2.260;2022-12-13T07:58:10;1.00;99.90
59309;DHT22;48433;53.016;-2.260;2022-12-13T08:00:41;1.00;99.90
59309;DHT22;48433;53.016;-2.260;2022-12-13T08:03:13;1.00;99.90
59309;DHT22;48433;53.016;-2.260;2022-12-13T08:06:02;0.70;99.90
59309;DHT22;48433;53.016;-2.260;2022-12-13T08:08:30;0.90;99.90
59309;DHT22;48433;53.016;-2.260;2022-12-13T08:11:10;0.80;99.90
59309;DHT22;48433;53.016;-2.260;2022-12-13T08:13:38;0.90;99.90
59309;DHT22;48433;53.016;-2.260;2022-12-13T08:16:09;0.80;99.90
59309;DHT22;48433;53.016;-2.260;2022-12-13T08:18:56;0.90;99.90
59309;DHT22;48433;53.016;-2.260;2022-12-13T08:21:40;0.80;99.90
59309;DHT22;48433;53.016;-2.260;2022-12-13T08:24:29;0.90;99.90
59309;DHT22;48433;53.016;-2.260;2022-12-13T08:26:58;0.80;99.90
59309;DHT22;48433;53.016;-2.260;2022-12-13T08:29:29;0.80;99.90
59309;DHT22;48433;53.016;-2.260;2022-12-13T08:32:10;0.80;99.90
59309;DHT22;48433;53.016;-2.260;2022-12-13T08:34:38;0.80;99.90
59309;DHT22;48433;53.016;-2.260;2022-12-13T08:37:06;0.80;99.90
59309;DHT22;48433;53.016;-2.260;2022-12-13T08:39:35;0.90;99.90
59309;DHT22;48433;53.016;-2.260;2022-12-13T08:42:07;0.90;99.90
59309;DHT22;48433;53.016;-2.260;2022-12-13T08:44:48;0.80;99.90
59309;DHT22;48433;53.016;-2.260;2022-12-13T08:47:20;0.90;99.90
59309;DHT22;48433;53.016;-2.260;2022-12-13T08:49:56;0.90;99.90
59309;DHT22;48433;53.016;-2.260;2022-12-13T08:52:31;0.80;99.90
59309;DHT22;48433;53.016;-2.260;2022-12-13T08:55:09;0.90;99.90
59309;DHT22;48433;53.016;-2.260;2022-12-13T08:57:38;0.90;99.90
59309;DHT22;48433;53.016;-2.260;2022-12-13T09:00:08;0.90;99.90
59309;DHT22;48433;53.016;-2.260;2022-12-13T09:02:37;0.90;99.90
59309;DHT22;48433;53.016;-2.260;2022-12-13T09:05:07;0.90;99.90
59309;DHT22;48433;53.016;-2.260;2022-12-13T09:07:36;0.90;99.90
59309;DHT22;48433;53.016;-2.260;2022-12-13T09:10:07;0.90;99.90
59309;DHT22;48433;53.016;-2.260;2022-12-13T09:12:55;0.90;99.90
59309;DHT22;48433;53.016;-2.260;2022-12-13T09:15:30;0.90;99.90
59309;DHT22;48433;53.016;-2.260;2022-12-13T09:18:02;0.90;99.90
59309;DHT22;48433;53.016;-2.260;2022-12-13T09:20:33;0.90;99.90
59309;DHT22;48433;53.016;-2.260;2022-12-13T09:23:09;0.90;99.90
59309;DHT22;48433;53.016;-2.260;2022-12-13T09:25:54;0.90;99.90
59309;DHT22;48433;53.016;-2.260;2022-12-13T09:28:34;0.90;99.90
59309;DHT22;48433;53.016;-2.260;2022-12-13T09:31:29;0.90;99.90
59309;DHT22;48433;53.016;-2.260;2022-12-13T09:33:57;0.90;99.90
59309;DHT22;48433;53.016;-2.260;2022-12-13T09:36:24;0.90;99.90
59309;DHT22;48433;53.016;-2.260;2022-12-13T09:38:52;0.90;99.90
59309;DHT22;48433;53.016;-2.260;2022-12-13T09:41:24;0.90;99.90
59309;DHT22;48433;53.016;-2.260;2022-12-13T09:44:34;1.00;99.90
59309;DHT22;48433;53.016;-2.260;2022-12-13T09:47:18;1.00;99.90
59309;DHT22;48433;53.016;-2.260;2022-12-13T09:49:52;1.00;99.90
59309;DHT22;48433;53.016;-2.260;2022-12-13T09:52:22;1.00;99.90
59309;DHT22;48433;53.016;-2.260;2022-12-13T09:54:57;1.00;99.90
59309;DHT22;48433;53.016;-2.260;2022-12-13T09:57:28;1.10;99.90
59309;DHT22;48433;53.016;-2.260;2022-12-13T10:00:10;1.10;99.90
59309;DHT22;48433;53.016;-2.260;2022-12-13T10:02:45;1.10;99.90
59309;DHT22;48433;53.016;-2.260;2022-12-13T10:08:19;1.10;99.90
59309;DHT22;48433;53.016;-2.260;2022-12-13T10:10:50;1.10;99.90
59309;DHT22;48433;53.016;-2.260;2022-12-13T10:13:42;1.20;99.90
59309;DHT22;48433;53.016;-2.260;2022-12-13T10:16:26;1.20;99.90
59309;DHT22;48433;53.016;-2.260;2022-12-13T10:19:30;1.30;99.90
59309;DHT22;48433;53.016;-2.260;2022-12-13T10:22:02;1.30;99.90
59309;DHT22;48433;53.016;-2.260;2022-12-13T10:27:27;1.30;99.90
59309;DHT22;48433;53.016;-2.260;2022-12-13T10:32:26;1.30;99.90
59309;DHT22;48433;53.016;-2.260;2022-12-13T10:34:54;1.40;99.90
59309;DHT22;48433;53.016;-2.260;2022-12-13T10:39:49;1.40;99.90
59309;DHT22;48433;53.016;-2.260;2022-12-13T10:42:19;1.40;99.90
59309;DHT22;48433;53.016;-2.260;2022-12-13T10:45:14;1.30;99.90
59309;DHT22;48433;53.016;-2.260;2022-12-13T10:47:50;1.30;99.90
59309;DHT22;48433;53.016;-2.260;2022-12-13T10:50:28;1.40;99.90
59309;DHT22;48433;53.016;-2.260;2022-12-13T10:52:58;1.40;99.90
59309;DHT22;48433;53.016;-2.260;2022-12-13T10:55:32;1.40;99.90
59309;DHT22;48433;53.016;-2.260;2022-12-13T10:58:04;1.40;99.90
59309;DHT22;48433;53.016;-2.260;2022-12-13T11:00:43;1.40;99.90
59309;DHT22;48433;53.016;-2.260;2022-12-13T11:03:26;1.40;99.90
59309;DHT22;48433;53.016;-2.260;2022-12-13T11:06:04;1.40;99.90
59309;DHT22;48433;53.016;-2.260;2022-12-13T11:08:32;1.40;99.90
59309;DHT22;48433;53.016;-2.260;2022-12-13T11:11:02;1.50;99.90
59309;DHT22;48433;53.016;-2.260;2022-12-13T11:16:26;1.60;99.90
59309;DHT22;48433;53.016;-2.260;2022-12-13T11:19:03;1.70;99.90
59309;DHT22;48433;53.016;-2.260;2022-12-13T11:21:33;1.70;99.90
59309;DHT22;48433;53.016;-2.260;2022-12-13T11:24:06;1.80;99.90
59309;DHT22;48433;53.016;-2.260;2022-12-13T11:26:37;2.00;99.90
59309;DHT22;48433;53.016;-2.260;2022-12-13T11:31:53;2.00;99.90
59309;DHT22;48433;53.016;-2.260;2022-12-13T11:40:04;2.00;99.90
59309;DHT22;48433;53.016;-2.260;2022-12-13T11:42:49;2.00;99.90
59309;DHT22;48433;53.016;-2.260;2022-12-13T11:45:22;2.00;99.90
59309;DHT22;48433;53.016;-2.260;2022-12-13T11:50:39;2.10;99.90
59309;DHT22;48433;53.016;-2.260;2022-12-13T11:53:21;2.10;99.90
59309;DHT22;48433;53.016;-2.260;2022-12-13T11:59:11;2.30;99.90
59309;DHT22;48433;53.016;-2.260;2022-12-13T12:04:30;2.60;99.90
59309;DHT22;48433;53.016;-2.260;2022-12-13T12:07:18;2.70;99.90
59309;DHT22;48433;53.016;-2.260;2022-12-13T12:12:44;2.80;99.90
59309;DHT22;48433;53.016;-2.260;2022-12-13T12:15:19;2.80;99.90
59309;DHT22;48433;53.016;-2.260;2022-12-13T12:17:54;2.80;99.90
59309;DHT22;48433;53.016;-2.260;2022-12-13T12:39:47;3.60;99.90
59309;DHT22;48433;53.016;-2.260;2022-12-13T12:48:09;3.80;99.90
59309;DHT22;48433;53.016;-2.260;2022-12-13T12:53:52;3.90;99.90
59309;DHT22;48433;53.016;-2.260;2022-12-13T12:57:07;3.90;99.90
59309;DHT22;48433;53.016;-2.260;2022-12-13T13:00:07;3.90;99.90
59309;DHT22;48433;53.016;-2.260;2022-12-13T13:06:15;4.20;99.90
59309;DHT22;48433;53.016;-2.260;2022-12-13T13:08:51;4.50;99.90
59309;DHT22;48433;53.016;-2.260;2022-12-13T13:11:28;5.00;99.90
59309;DHT22;48433;53.016;-2.260;2022-12-13T13:21:42;5.40;99.90
59309;DHT22;48433;53.016;-2.260;2022-12-13T13:24:16;5.40;99.90
59309;DHT22;48433;53.016;-2.260;2022-12-13T13:26:51;5.40;99.90
59309;DHT22;48433;53.016;-2.260;2022-12-13T13:37:59;4.80;99.90
59309;DHT22;48433;53.016;-2.260;2022-12-13T13:40:33;4.80;99.90
59309;DHT22;48433;53.016;-2.260;2022-12-13T13:56:44;3.50;99.90
59309;DHT22;48433;53.016;-2.260;2022-12-13T14:02:43;3.50;99.90
59309;DHT22;48433;53.016;-2.260;2022-12-13T14:23:12;3.00;99.90
59309;DHT22;48433;53.016;-2.260;2022-12-13T14:28:52;2.90;99.90
59309;DHT22;48433;53.016;-2.260;2022-12-13T14:31:24;2.90;99.90
59309;DHT22;48433;53.016;-2.260;2022-12-13T14:33:54;2.80;99.90
59309;DHT22;48433;53.016;-2.260;2022-12-13T14:36:29;2.70;99.90
59309;DHT22;48433;53.016;-2.260;2022-12-13T14:39:05;2.70;99.90
59309;DHT22;48433;53.016;-2.260;2022-12-13T14:41:55;2.70;99.90
59309;DHT22;48433;53.016;-2.260;2022-12-13T14:44:29;2.60;99.90
59309;DHT22;48433;53.016;-2.260;2022-12-13T14:47:02;2.50;99.90
59309;DHT22;48433;53.016;-2.260;2022-12-13T14:49:40;2.60;99.90
59309;DHT22;48433;53.016;-2.260;2022-12-13T14:52:24;2.50;99.90
59309;DHT22;48433;53.016;-2.260;2022-12-13T14:54:56;2.40;99.90
59309;DHT22;48433;53.016;-2.260;2022-12-13T14:57:29;2.30;99.90
59309;DHT22;48433;53.016;-2.260;2022-12-13T14:59:58;2.30;99.90
59309;DHT22;48433;53.016;-2.260;2022-12-13T15:02:32;2.20;99.90
59309;DHT22;48433;53.016;-2.260;2022-12-13T15:05:02;2.10;99.90
59309;DHT22;48433;53.016;-2.260;2022-12-13T15:07:35;2.00;99.90
59309;DHT22;48433;53.016;-2.260;2022-12-13T15:12:46;1.90;99.90
59309;DHT22;48433;53.016;-2.260;2022-12-13T15:15:28;1.70;99.90
59309;DHT22;48433;53.016;-2.260;2022-12-13T15:20:47;1.50;99.90
59309;DHT22;48433;53.016;-2.260;2022-12-13T15:23:36;1.40;99.90
59309;DHT22;48433;53.016;-2.260;2022-12-13T15:26:25;1.30;99.90
59309;DHT22;48433;53.016;-2.260;2022-12-13T15:28:58;1.20;99.90
59309;DHT22;48433;53.016;-2.260;2022-12-13T15:31:27;1.30;99.90
59309;DHT22;48433;53.016;-2.260;2022-12-13T15:34:20;1.10;99.90
59309;DHT22;48433;53.016;-2.260;2022-12-13T15:37:02;1.10;99.90
59309;DHT22;48433;53.016;-2.260;2022-12-13T15:39:36;1.10;99.90
59309;DHT22;48433;53.016;-2.260;2022-12-13T15:42:10;1.00;99.90
59309;DHT22;48433;53.016;-2.260;2022-12-13T15:44:55;1.00;99.90
59309;DHT22;48433;53.016;-2.260;2022-12-13T15:47:23;0.90;99.90
59309;DHT22;48433;53.016;-2.260;2022-12-13T15:50:04;0.90;99.90
59309;DHT22;48433;53.016;-2.260;2022-12-13T15:52:37;0.80;99.90
59309;DHT22;48433;53.016;-2.260;2022-12-13T15:57:50;0.70;99.90
59309;DHT22;48433;53.016;-2.260;2022-12-13T16:00:24;0.60;99.90
59309;DHT22;48433;53.016;-2.260;2022-12-13T16:03:12;0.60;99.90
59309;DHT22;48433;53.016;-2.260;2022-12-13T16:05:47;0.40;99.90
59309;DHT22;48433;53.016;-2.260;2022-12-13T16:10:48;0.40;99.90
59309;DHT22;48433;53.016;-2.260;2022-12-13T16:13:43;0.40;99.90
59309;DHT22;48433;53.016;-2.260;2022-12-13T16:18:59;0.20;99.90
59309;DHT22;48433;53.016;-2.260;2022-12-13T16:21:27;0.10;99.90
59309;DHT22;48433;53.016;-2.260;2022-12-13T16:23:55;0.00;99.90
59309;DHT22;48433;53.016;-2.260;2022-12-13T16:26:27;-0.10;99.90
59309;DHT22;48433;53.016;-2.260;2022-12-13T16:28:55;-0.10;99.90
59309;DHT22;48433;53.016;-2.260;2022-12-13T16:31:27;-0.20;99.90
59309;DHT22;48433;53.016;-2.260;2022-12-13T16:33:57;-0.30;99.90
59309;DHT22;48433;53.016;-2.260;2022-12-13T16:36:25;-0.30;99.90
59309;DHT22;48433;53.016;-2.260;2022-12-13T16:38:53;-0.30;99.90
59309;DHT22;48433;53.016;-2.260;2022-12-13T16:41:20;-0.40;99.90
59309;DHT22;48433;53.016;-2.260;2022-12-13T16:43:52;-0.40;99.90
59309;DHT22;48433;53.016;-2.260;2022-12-13T16:46:22;-0.50;99.90
59309;DHT22;48433;53.016;-2.260;2022-12-13T16:49:29;-0.60;99.90
59309;DHT22;48433;53.016;-2.260;2022-12-13T16:51:56;-0.60;99.90
59309;DHT22;48433;53.016;-2.260;2022-12-13T16:54:25;-0.60;99.90
59309;DHT22;48433;53.016;-2.260;2022-12-13T16:56:53;-0.60;99.90
59309;DHT22;48433;53.016;-2.260;2022-12-13T16:59:25;-0.70;99.90
59309;DHT22;48433;53.016;-2.260;2022-12-13T17:01:53;-0.70;99.90
59309;DHT22;48433;53.016;-2.260;2022-12-13T17:04:22;-0.80;99.90
59309;DHT22;48433;53.016;-2.260;2022-12-13T17:06:50;-0.80;99.90
59309;DHT22;48433;53.016;-2.260;2022-12-13T17:09:22;-0.80;99.90
59309;DHT22;48433;53.016;-2.260;2022-12-13T17:11:51;-0.90;99.90
59309;DHT22;48433;53.016;-2.260;2022-12-13T17:14:19;-0.90;99.90
59309;DHT22;48433;53.016;-2.260;2022-12-13T17:16:46;-1.00;99.90
59309;DHT22;48433;53.016;-2.260;2022-12-13T17:19:14;-1.00;99.90
59309;DHT22;48433;53.016;-2.260;2022-12-13T17:21:43;-1.00;99.90
59309;DHT22;48433;53.016;-2.260;2022-12-13T17:24:11;-1.00;99.90
59309;DHT22;48433;53.016;-2.260;2022-12-13T17:26:39;-4.20;99.90
59309;DHT22;48433;53.016;-2.260;2022-12-13T17:29:20;-1.10;99.90
59309;DHT22;48433;53.016;-2.260;2022-12-13T17:31:48;-1.20;99.90
59309;DHT22;48433;53.016;-2.260;2022-12-13T17:34:16;-1.20;99.90
59309;DHT22;48433;53.016;-2.260;2022-12-13T17:36:43;-1.20;99.90
59309;DHT22;48433;53.016;-2.260;2022-12-13T17:39:11;-1.30;99.90
59309;DHT22;48433;53.016;-2.260;2022-12-13T17:41:52;-1.30;99.90
59309;DHT22;48433;53.016;-2.260;2022-12-13T17:44:23;-1.40;99.90
59309;DHT22;48433;53.016;-2.260;2022-12-13T17:46:52;-1.40;99.90
59309;DHT22;48433;53.016;-2.260;2022-12-13T17:49:22;-1.40;99.90
59309;DHT22;48433;53.016;-2.260;2022-12-13T17:51:52;-1.50;99.90
59309;DHT22;48433;53.016;-2.260;2022-12-13T17:54:21;-1.50;99.90
59309;DHT22;48433;53.016;-2.260;2022-12-13T17:56:50;-1.60;99.90
59309;DHT22;48433;53.016;-2.260;2022-12-13T17:59:18;-1.60;99.90
59309;DHT22;48433;53.016;-2.260;2022-12-13T18:01:46;-1.50;99.90
59309;DHT22;48433;53.016;-2.260;2022-12-13T18:04:14;-1.50;99.90
59309;DHT22;48433;53.016;-2.260;2022-12-13T18:06:42;-1.50;99.90
59309;DHT22;48433;53.016;-2.260;2022-12-13T18:09:10;-1.50;99.90
59309;DHT22;48433;53.016;-2.260;2022-12-13T18:11:38;-1.50;99.90
59309;DHT22;48433;53.016;-2.260;2022-12-13T18:14:07;-1.50;99.90
59309;DHT22;48433;53.016;-2.260;2022-12-13T18:16:35;-1.50;99.90
59309;DHT22;48433;53.016;-2.260;2022-12-13T18:19:07;-1.50;99.90
59309;DHT22;48433;53.016;-2.260;2022-12-13T18:21:35;-1.60;99.90
59309;DHT22;48433;53.016;-2.260;2022-12-13T18:24:05;-1.60;99.90
59309;DHT22;48433;53.016;-2.260;2022-12-13T18:26:33;-1.70;99.90
59309;DHT22;48433;53.016;-2.260;2022-12-13T18:29:02;-1.80;99.90
59309;DHT22;48433;53.016;-2.260;2022-12-13T18:31:31;-1.80;99.90
59309;DHT22;48433;53.016;-2.260;2022-12-13T18:34:00;-1.90;99.90
59309;DHT22;48433;53.016;-2.260;2022-12-13T18:36:28;-2.00;99.90
59309;DHT22;48433;53.016;-2.260;2022-12-13T18:38:57;-2.00;99.90
59309;DHT22;48433;53.016;-2.260;2022-12-13T18:41:27;-2.10;99.90
59309;DHT22;48433;53.016;-2.260;2022-12-13T18:43:59;-2.10;99.90
59309;DHT22;48433;53.016;-2.260;2022-12-13T18:46:28;-2.10;99.90
59309;DHT22;48433;53.016;-2.260;2022-12-13T18:48:57;-2.10;99.90
59309;DHT22;48433;53.016;-2.260;2022-12-13T18:51:26;-2.10;99.90
59309;DHT22;48433;53.016;-2.260;2022-12-13T18:53:54;-2.00;99.90
59309;DHT22;48433;53.016;-2.260;2022-12-13T18:56:23;-2.00;99.90